Time;durP1;ratioP1;P1;durP2;ratioP2;P2;SDS_P1;SDS_P2;PMS_P1;PMS_P2;Temp;Humidity;BMP_temperature;BMP_pressure;BME280_temperature;BME280_humidity;BME280_pressure;Samples;Min_cycle;Max_cycle;Signal;HPM_P1;HPM_P2
2023/01/11 00:02:04;;;;;;;55.70;23.90;;;;;;;6.72;92.33;100547.83;131135;1253;107603;-74
2023/01/11 00:05:10;;;;;;;53.80;21.80;;;;;;;6.69;92.30;100543.23;131132;1252;107450;-74
2023/01/11 00:08:18;;;;;;;54.50;23.00;;;;;;;6.69;92.08;100544.80;131148;1253;107249;-74
2023/01/11 00:11:23;;;;;;;57.20;25.30;;;;;;;6.72;92.14;100548.50;131128;1254;107442;-74
2023/01/11 00:14:29;;;;;;;52.90;24.30;;;;;;;6.75;91.94;100549.17;131170;1252;107521;-74
2023/01/11 00:17:35;;;;;;;53.80;23.50;;;;;;;6.74;92.06;100544.33;131111;1253;107705;-73
2023/01/11 00:20:41;;;;;;;53.70;24.90;;;;;;;6.74;92.11;100549.46;131110;1252;108669;-74
2023/01/11 00:23:50;;;;;;;48.10;20.00;;;;;;;6.72;91.98;100551.16;131066;1252;107537;-74
2023/01/11 00:26:55;;;;;;;45.20;19.30;;;;;;;6.72;91.97;100549.62;131117;1253;107489;-74
2023/01/11 00:30:01;;;;;;;51.30;22.70;;;;;;;6.72;91.85;100550.08;131065;1252;107498;-75
2023/01/11 00:33:07;;;;;;;56.20;24.80;;;;;;;6.75;91.85;100550.96;131137;1252;107611;-74
2023/01/11 00:36:12;;;;;;;49.50;22.50;;;;;;;6.76;91.81;100553.48;131350;1252;106049;-76
2023/01/11 00:39:18;;;;;;;48.20;21.60;;;;;;;6.79;91.64;100555.77;131266;1253;107606;-75
2023/01/11 00:49:21;;;;;;;34.30;16.00;;;;;;;6.74;91.86;100560.25;130532;1258;107235;-74
2023/01/11 00:52:27;;;;;;;32.30;15.20;;;;;;;6.73;91.90;100559.56;131282;1253;107270;-74
2023/01/11 00:55:32;;;;;;;36.00;17.70;;;;;;;6.73;91.94;100560.11;131373;1254;107434;-76
2023/01/11 00:58:38;;;;;;;38.50;18.20;;;;;;;6.76;91.92;100564.48;131225;1252;106571;-74
2023/01/11 01:01:43;;;;;;;41.60;19.60;;;;;;;6.80;91.77;100566.09;131084;1250;107980;-74
2023/01/11 01:04:49;;;;;;;39.20;21.20;;;;;;;6.80;91.51;100567.70;131083;1254;107238;-74
2023/01/11 01:07:55;;;;;;;44.90;23.80;;;;;;;6.78;91.54;100573.34;131047;1250;107366;-74
2023/01/11 01:11:00;;;;;;;108.00;61.60;;;;;;;6.75;91.39;100569.86;131120;1252;105632;-74
2023/01/11 01:17:29;;;;;;;55.90;23.20;;;;;;;6.68;91.48;100567.88;131156;1252;107578;-73
2023/01/11 01:20:35;;;;;;;58.60;25.90;;;;;;;6.68;91.58;100566.81;131438;1251;106736;-73
2023/01/11 01:23:41;;;;;;;54.50;24.70;;;;;;;6.69;91.52;100559.53;131389;1254;107335;-73
2023/01/11 01:26:46;;;;;;;50.80;24.80;;;;;;;6.67;91.42;100551.00;131343;1253;107420;-75
2023/01/11 01:29:52;;;;;;;53.50;25.50;;;;;;;6.62;91.32;100554.63;131384;1261;107524;-73
2023/01/11 01:32:58;;;;;;;52.20;26.20;;;;;;;6.58;91.57;100564.14;131184;1252;107502;-74
2023/01/11 01:36:04;;;;;;;50.40;26.10;;;;;;;6.56;91.39;100561.41;131237;1253;107212;-73
2023/01/11 01:39:11;;;;;;;46.30;21.70;;;;;;;6.51;91.25;100554.20;131339;1256;107464;-73
2023/01/11 01:42:19;;;;;;;46.10;21.40;;;;;;;6.50;91.51;100557.48;131186;1260;106627;-73
2023/01/11 01:45:27;;;;;;;48.40;23.70;;;;;;;6.49;91.29;100558.39;131183;1253;107513;-73
2023/01/11 01:48:33;;;;;;;46.50;22.90;;;;;;;6.52;91.27;100558.20;131195;1254;107389;-74
2023/01/11 01:51:43;;;;;;;47.30;23.00;;;;;;;6.53;91.32;100556.18;131334;1253;107453;-73
2023/01/11 01:54:50;;;;;;;40.30;21.80;;;;;;;6.54;91.21;100555.23;131135;1253;107421;-72
2023/01/11 01:57:57;;;;;;;44.40;22.80;;;;;;;6.52;91.20;100551.84;131414;1252;107584;-71
2023/01/11 02:04:27;;;;;;;41.60;20.30;;;;;;;6.45;91.01;100558.22;131262;1248;107545;-73
2023/01/11 02:07:35;;;;;;;36.70;19.10;;;;;;;6.41;91.06;100556.77;131288;1248;108692;-73
2023/01/11 02:10:41;;;;;;;38.90;20.50;;;;;;;6.38;91.06;100550.45;131357;1252;107446;-73
2023/01/11 02:13:47;;;;;;;37.10;21.20;;;;;;;6.37;90.94;100547.89;131356;1261;108676;-74
2023/01/11 02:16:53;;;;;;;34.70;19.70;;;;;;;6.38;90.89;100542.17;131368;1262;108598;-73
2023/01/11 02:20:08;;;;;;;37.40;20.50;;;;;;;6.36;91.08;100537.67;131376;1254;108697;-74
2023/01/11 02:23:57;;;;;;;33.60;19.40;;;;;;;6.35;90.77;100537.48;131343;1250;108605;-73
2023/01/11 02:27:28;;;;;;;36.50;21.00;;;;;;;6.32;90.92;100543.17;131317;1254;106481;-73
2023/01/11 02:30:40;;;;;;;38.10;19.60;;;;;;;6.25;90.34;100541.90;131249;1253;106263;-74
2023/01/11 02:33:54;;;;;;;39.50;19.00;;;;;;;6.21;90.43;100544.17;131147;1252;108714;-74
2023/01/11 02:37:18;;;;;;;57.90;24.20;;;;;;;6.20;90.43;100541.42;131111;1250;107370;-74
2023/01/11 02:40:29;;;;;;;68.80;27.50;;;;;;;6.21;90.24;100540.96;131035;1252;107537;-73
2023/01/11 02:47:17;;;;;;;44.40;22.90;;;;;;;6.20;89.99;100540.89;130935;1253;177583;-73
2023/01/11 02:50:28;;;;;;;34.80;19.80;;;;;;;6.17;90.15;100539.00;131081;1253;107335;-73
2023/01/11 02:53:41;;;;;;;40.70;25.00;;;;;;;6.15;90.17;100539.51;131434;1252;108708;-73
2023/01/11 02:56:48;;;;;;;;;;;;;;;6.13;90.25;100542.86;131350;1252;107482;-74
2023/01/11 02:59:56;;;;;;;33.00;17.00;;;;;;;6.10;90.17;100543.92;131321;1261;108641;-73
2023/01/11 03:03:12;;;;;;;33.90;18.40;;;;;;;6.07;90.23;100545.39;131223;1253;107557;-73
2023/01/11 03:06:21;;;;;;;34.70;19.40;;;;;;;6.05;89.90;100545.20;131379;1265;107671;-72
2023/01/11 03:09:34;;;;;;;38.20;20.60;;;;;;;6.05;89.94;100543.41;131237;1253;107258;-73
2023/01/11 03:12:53;;;;;;;34.10;20.10;;;;;;;6.04;89.83;100534.66;131076;1248;107481;-72
2023/01/11 03:16:23;;;;;;;31.90;19.00;;;;;;;5.99;89.90;100538.80;131325;1261;107411;-74
2023/01/11 03:19:38;;;;;;;31.40;17.90;;;;;;;5.93;89.78;100536.95;131338;1264;108084;-74
2023/01/11 03:23:00;;;;;;;30.00;18.20;;;;;;;5.86;89.65;100538.27;131355;1253;107615;-73
2023/01/11 03:26:15;;;;;;;33.80;17.40;;;;;;;5.83;89.91;100541.54;131294;1252;107259;-74
2023/01/11 03:29:30;;;;;;;30.00;17.20;;;;;;;5.80;89.78;100546.14;131082;1252;107540;-73
2023/01/11 03:32:44;;;;;;;28.50;15.80;;;;;;;5.80;89.74;100544.20;131086;1256;107272;-72
2023/01/11 03:35:58;;;;;;;28.30;16.50;;;;;;;5.83;89.78;100537.06;131079;1252;107529;-73
2023/01/11 03:39:13;;;;;;;27.40;16.50;;;;;;;5.87;89.70;100530.98;131114;1254;107395;-73
2023/01/11 03:42:22;;;;;;;31.00;18.00;;;;;;;5.88;89.43;100532.14;131275;1248;107372;-74
2023/01/11 03:45:31;;;;;;;29.80;17.30;;;;;;;5.86;89.57;100528.73;131275;1261;106809;-72
2023/01/11 03:48:42;;;;;;;32.30;18.00;;;;;;;5.86;89.48;100526.23;131080;1271;107262;-72
2023/01/11 03:51:48;;;;;;;26.80;16.80;;;;;;;5.85;89.52;100529.89;131074;1252;107547;-72
2023/01/11 03:54:56;;;;;;;29.70;16.50;;;;;;;5.85;89.54;100529.91;131140;1255;108683;-72
2023/01/11 03:58:01;;;;;;;29.00;16.60;;;;;;;5.85;89.51;100528.48;131190;1253;107369;-75
2023/01/11 04:01:08;;;;;;;30.60;16.70;;;;;;;5.86;89.54;100522.89;131260;1264;107375;-76
2023/01/11 04:04:14;;;;;;;30.80;17.40;;;;;;;5.89;89.31;100523.21;131459;1253;107536;-73
2023/01/11 04:07:19;;;;;;;30.70;17.20;;;;;;;5.91;89.30;100527.67;131414;1252;107525;-73
2023/01/11 04:10:25;;;;;;;29.60;16.90;;;;;;;5.92;89.49;100530.24;131612;1252;107905;-73
2023/01/11 04:13:31;;;;;;;29.10;17.30;;;;;;;5.91;89.16;100533.17;131573;1254;107362;-73
2023/01/11 04:16:36;;;;;;;29.80;17.50;;;;;;;5.87;89.05;100530.65;131487;1258;107547;-73
2023/01/11 04:19:42;;;;;;;28.00;16.20;;;;;;;5.82;89.18;100527.29;131496;1251;107431;-72
2023/01/11 04:22:47;;;;;;;25.60;14.80;;;;;;;5.76;89.00;100528.63;131338;1252;107603;-73
2023/01/11 04:25:53;;;;;;;26.00;15.00;;;;;;;5.72;89.03;100530.21;131383;1252;107587;-73
2023/01/11 04:28:58;;;;;;;29.30;15.30;;;;;;;5.72;89.26;100528.55;131279;1261;106479;-73
2023/01/11 04:32:04;;;;;;;28.30;16.20;;;;;;;5.74;89.35;100519.58;131072;1264;107318;-73
2023/01/11 04:35:10;;;;;;;33.60;17.20;;;;;;;5.78;89.14;100516.81;131198;1261;107485;-73
2023/01/11 04:38:16;;;;;;;45.60;22.80;;;;;;;5.82;89.04;100514.98;131283;1262;107519;-73
2023/01/11 04:44:45;;;;;;;35.80;18.90;;;;;;;5.78;89.21;100510.48;131420;1253;106678;-73
2023/01/11 04:47:56;;;;;;;32.70;17.70;;;;;;;5.74;89.28;100510.26;131302;1252;107468;-73
2023/01/11 04:51:01;;;;;;;29.70;15.30;;;;;;;5.70;89.04;100509.50;131247;1254;107521;-73
2023/01/11 04:54:07;;;;;;;25.30;14.30;;;;;;;5.67;89.20;100511.12;131445;1253;109642;-73
2023/01/11 04:57:16;;;;;;;28.90;14.90;;;;;;;5.67;89.15;100513.61;131506;1247;107427;-73
2023/01/11 05:00:22;;;;;;;30.20;16.10;;;;;;;5.70;89.41;100514.27;131481;1253;107393;-73
2023/01/11 05:03:30;;;;;;;57.00;24.10;;;;;;;5.75;89.16;100517.42;131637;1260;107497;-73
2023/01/11 05:06:36;;;;;;;49.50;22.20;;;;;;;5.80;89.02;100517.44;131363;1262;107535;-73
2023/01/11 05:09:42;;;;;;;58.30;26.10;;;;;;;5.79;89.04;100515.49;131188;1264;108363;-73
2023/01/11 05:12:47;;;;;;;40.50;22.00;;;;;;;5.80;88.98;100519.70;131404;1248;107421;-73
2023/01/11 05:15:53;;;;;;;33.40;17.80;;;;;;;5.78;89.18;100520.89;131167;1258;108688;-73
2023/01/11 05:19:00;;;;;;;34.20;18.00;;;;;;;5.77;89.53;100518.36;131243;1248;107522;-73
2023/01/11 05:22:05;;;;;;;33.00;17.90;;;;;;;5.79;89.46;100514.99;131383;1258;107490;-73
2023/01/11 05:25:11;;;;;;;40.40;21.30;;;;;;;5.82;89.47;100517.75;131206;1248;106663;-75
2023/01/11 05:28:17;;;;;;;39.00;21.60;;;;;;;5.85;89.15;100513.11;131175;1254;107384;-73
2023/01/11 05:31:23;;;;;;;40.60;22.10;;;;;;;5.85;89.25;100515.39;131377;1253;105426;-73
2023/01/11 05:34:28;;;;;;;39.50;22.30;;;;;;;5.84;89.01;100513.02;131299;1252;107450;-73
2023/01/11 05:37:34;;;;;;;40.00;22.80;;;;;;;5.81;89.17;100508.86;131425;1254;107426;-73
2023/01/11 05:40:39;;;;;;;39.20;20.20;;;;;;;5.75;89.22;100504.34;131142;1253;107220;-73
2023/01/11 05:47:11;;;;;;;39.00;21.60;;;;;;;5.68;89.26;100494.27;131426;1248;108358;-74
2023/01/11 05:50:17;;;;;;;40.20;22.60;;;;;;;5.69;89.16;100492.05;131317;1253;106054;-74
2023/01/11 05:53:23;;;;;;;44.90;23.30;;;;;;;5.70;89.33;100483.92;131269;1253;107489;-74
2023/01/11 05:56:30;;;;;;;45.20;23.00;;;;;;;5.69;89.04;100473.40;131100;1248;107367;-75
2023/01/11 05:59:36;;;;;;;95.50;39.10;;;;;;;5.63;89.05;100474.56;131128;1248;107283;-74
2023/01/11 06:02:41;;;;;;;83.00;37.40;;;;;;;5.58;88.89;100472.65;131203;1253;107702;-73
2023/01/11 06:05:47;;;;;;;52.00;25.80;;;;;;;5.54;89.08;100475.73;131104;1262;106564;-72
2023/01/11 06:08:52;;;;;;;44.00;22.70;;;;;;;5.52;88.81;100477.52;131083;1253;107239;-75
2023/01/11 06:11:58;;;;;;;42.00;22.50;;;;;;;5.49;89.07;100472.17;131131;1261;107481;-72
2023/01/11 06:15:04;;;;;;;42.80;23.30;;;;;;;5.46;89.04;100466.66;131151;1253;107521;-72
2023/01/11 06:18:09;;;;;;;51.10;25.60;;;;;;;5.45;88.80;100466.38;131091;1248;107433;-73
2023/01/11 06:21:16;;;;;;;49.00;25.50;;;;;;;5.43;88.99;100464.73;131059;1248;107367;-72
2023/01/11 06:24:22;;;;;;;49.40;26.00;;;;;;;5.41;89.10;100461.36;131299;1248;107504;-72
2023/01/11 06:27:27;;;;;;;50.10;25.40;;;;;;;5.39;89.08;100462.38;131105;1248;107525;-73
2023/01/11 06:30:33;;;;;;;47.10;22.90;;;;;;;5.37;88.94;100473.16;131088;1255;106791;-73
2023/01/11 06:33:39;;;;;;;45.60;23.10;;;;;;;5.34;89.18;100473.88;131241;1248;107936;-73
2023/01/11 06:36:44;;;;;;;46.50;24.10;;;;;;;5.34;89.28;100474.77;131194;1261;107366;-74
2023/01/11 06:39:50;;;;;;;45.80;24.80;;;;;;;5.36;89.17;100476.90;131125;1247;108765;-73
2023/01/11 06:42:55;;;;;;;47.10;24.70;;;;;;;5.38;89.18;100477.46;131302;1252;106131;-73
2023/01/11 06:46:01;;;;;;;49.00;24.50;;;;;;;5.40;88.91;100474.64;131165;1255;107558;-73
2023/01/11 06:49:07;;;;;;;48.80;26.10;;;;;;;5.41;89.10;100473.71;131257;1254;107265;-73
2023/01/11 06:52:12;;;;;;;48.30;25.80;;;;;;;5.41;89.22;100472.14;131147;1253;108598;-73
2023/01/11 06:55:18;;;;;;;47.20;23.60;;;;;;;5.39;89.18;100474.89;131066;1253;105688;-73
2023/01/11 06:58:25;;;;;;;41.90;21.70;;;;;;;5.39;89.23;100477.95;131116;1248;107250;-73
2023/01/11 07:01:31;;;;;;;39.30;20.30;;;;;;;5.38;89.09;100480.69;131077;1253;107386;-73
2023/01/11 07:04:36;;;;;;;36.50;21.10;;;;;;;5.39;89.28;100479.13;131248;1253;107621;-80
2023/01/11 07:07:43;;;;;;;34.10;20.00;;;;;;;5.43;89.01;100475.67;131186;1254;107326;-78
2023/01/11 07:10:49;;;;;;;39.70;21.50;;;;;;;5.43;89.22;100471.43;131400;1262;107532;-79
2023/01/11 07:13:55;;;;;;;42.90;23.90;;;;;;;5.41;89.08;100468.04;131384;1252;107364;-80
2023/01/11 07:17:00;;;;;;;43.60;22.60;;;;;;;5.39;88.79;100467.20;131458;1254;107485;-80
2023/01/11 07:20:07;;;;;;;44.20;21.80;;;;;;;5.34;89.02;100471.98;131274;1255;107440;-79
2023/01/11 07:23:13;;;;;;;42.20;19.00;;;;;;;5.29;89.07;100472.15;131408;1248;107566;-79
2023/01/11 07:26:18;;;;;;;53.30;25.00;;;;;;;5.30;89.23;100475.59;131292;1252;107499;-79
2023/01/11 07:29:24;;;;;;;46.70;23.80;;;;;;;5.37;89.04;100471.23;131253;1254;106496;-80
2023/01/11 07:32:30;;;;;;;48.90;24.90;;;;;;;5.42;89.23;100468.38;131220;1248;107572;-82
2023/01/11 07:35:35;;;;;;;45.50;23.30;;;;;;;5.42;88.93;100465.48;131307;1248;107386;-79
2023/01/11 07:38:41;;;;;;;45.10;24.30;;;;;;;5.41;88.89;100457.16;131204;1254;107331;-79
2023/01/11 07:45:11;;;;;;;48.70;25.10;;;;;;;5.39;89.10;100453.60;131526;1251;107697;-82
2023/01/11 07:48:23;;;;;;;46.80;22.90;;;;;;;5.36;88.91;100466.84;131325;1251;107491;-79
2023/01/11 07:51:28;;;;;;;45.10;22.00;;;;;;;5.37;88.86;100476.33;131414;1248;107420;-82
2023/01/11 07:54:34;;;;;;;46.80;23.80;;;;;;;5.39;88.75;100482.20;131455;1254;108369;-80
2023/01/11 07:57:40;;;;;;;46.80;24.50;;;;;;;5.41;88.81;100478.45;131534;1254;107155;-80
2023/01/11 08:00:45;;;;;;;47.40;23.60;;;;;;;5.44;88.84;100477.17;131296;1247;108151;-79
2023/01/11 08:03:51;;;;;;;45.40;24.40;;;;;;;5.50;88.91;100473.59;131330;1254;107613;-79
2023/01/11 08:06:56;;;;;;;41.30;22.00;;;;;;;5.56;88.54;100473.36;131223;1248;107820;-80
2023/01/11 08:10:03;;;;;;;38.70;19.90;;;;;;;5.52;88.59;100472.02;131292;1252;107673;-80
2023/01/11 08:16:35;;;;;;;41.60;20.30;;;;;;;5.47;88.31;100478.72;131355;1253;108115;-80
2023/01/11 08:19:40;;;;;;;38.60;19.30;;;;;;;5.50;88.57;100474.95;131475;1254;107524;-80
2023/01/11 08:22:47;;;;;;;35.40;19.00;;;;;;;5.59;88.59;100472.55;131323;1254;108677;-81
2023/01/11 08:25:57;;;;;;;38.00;21.50;;;;;;;5.66;88.57;100472.04;131270;1253;107504;-79
2023/01/11 08:29:03;;;;;;;32.70;18.00;;;;;;;5.67;88.53;100466.10;131373;1253;107491;-79
2023/01/11 08:32:08;;;;;;;36.30;20.60;;;;;;;5.70;88.61;100464.69;131225;1252;107244;-80
2023/01/11 08:35:14;;;;;;;33.30;19.60;;;;;;;5.70;88.34;100458.46;131545;1251;107428;-80
2023/01/11 08:38:19;;;;;;;35.60;19.30;;;;;;;5.71;87.99;100461.05;131536;1251;107573;-79
2023/01/11 08:41:25;;;;;;;30.30;17.50;;;;;;;5.71;88.09;100458.21;131516;1251;107256;-80
2023/01/11 08:44:30;;;;;;;30.80;18.30;;;;;;;5.76;88.27;100457.36;131567;1251;107980;-80
2023/01/11 08:47:36;;;;;;;33.70;20.40;;;;;;;5.79;87.98;100452.70;131424;1251;105889;-80
2023/01/11 08:50:43;;;;;;;34.60;20.20;;;;;;;5.79;87.69;100450.89;131511;1247;107351;-80
2023/01/11 08:53:51;;;;;;;38.10;23.10;;;;;;;5.82;87.88;100450.18;131506;1247;107357;-80
2023/01/11 08:56:57;;;;;;;33.20;18.40;;;;;;;5.83;87.74;100456.44;131508;1252;107517;-79
2023/01/11 09:00:03;;;;;;;27.50;15.20;;;;;;;5.85;88.03;100452.92;131238;1252;107505;-81
2023/01/11 09:03:10;;;;;;;27.40;15.10;;;;;;;5.87;87.82;100449.91;131490;1248;107528;-80
2023/01/11 09:06:17;;;;;;;28.40;15.90;;;;;;;5.90;87.21;100444.27;131461;1247;106439;-79
2023/01/11 09:09:23;;;;;;;26.10;15.20;;;;;;;5.93;87.28;100440.48;131586;1248;107246;-80
2023/01/11 09:12:28;;;;;;;26.00;15.60;;;;;;;5.98;87.05;100442.05;131483;1254;107737;-79
2023/01/11 09:15:34;;;;;;;26.60;15.90;;;;;;;6.01;86.98;100435.31;131317;1247;107353;-81
2023/01/11 09:18:40;;;;;;;28.50;16.40;;;;;;;6.04;87.33;100432.75;131428;1254;108191;-79
2023/01/11 09:21:45;;;;;;;26.30;15.40;;;;;;;6.09;87.13;100434.30;131683;1247;107452;-79
2023/01/11 09:24:51;;;;;;;32.00;17.40;;;;;;;6.04;86.40;100434.56;131332;1248;107529;-79
2023/01/11 09:27:56;;;;;;;29.20;17.00;;;;;;;6.02;87.06;100434.70;131449;1254;107475;-79
2023/01/11 09:31:02;;;;;;;40.30;20.90;;;;;;;6.07;87.05;100434.10;131341;1254;107497;-79
2023/01/11 09:34:11;;;;;;;27.90;15.70;;;;;;;6.16;87.06;100429.54;131257;1254;107264;-80
2023/01/11 09:37:17;;;;;;;29.40;16.60;;;;;;;6.24;87.06;100424.30;131497;1247;107381;-79
2023/01/11 09:40:30;;;;;;;27.40;16.00;;;;;;;6.28;86.75;100420.81;131432;1251;107449;-79
2023/01/11 09:43:42;;;;;;;24.40;14.60;;;;;;;6.29;86.77;100420.04;131461;1251;107362;-82
2023/01/11 09:46:53;;;;;;;24.60;14.70;;;;;;;6.31;86.28;100419.89;131551;1248;107234;-79
2023/01/11 09:50:02;;;;;;;24.00;14.30;;;;;;;6.35;86.77;100416.95;131577;1251;107413;-81
2023/01/11 09:53:13;;;;;;;25.20;14.40;;;;;;;6.36;85.96;100413.16;131433;1248;105856;-79
2023/01/11 09:56:26;;;;;;;22.70;13.30;;;;;;;6.33;86.19;100409.36;131236;1252;107464;-77
2023/01/11 09:59:40;;;;;;;21.90;12.50;;;;;;;6.33;86.12;100403.50;131179;1253;108484;-78
2023/01/11 10:03:03;;;;;;;25.70;14.60;;;;;;;6.37;86.52;100396.11;131382;1253;108783;-79
2023/01/11 10:06:18;;;;;;;25.80;15.40;;;;;;;6.44;86.38;100390.04;131329;1252;108976;-78
2023/01/11 10:09:34;;;;;;;27.20;15.70;;;;;;;6.50;86.21;100387.15;131264;1254;107629;-77
2023/01/11 10:12:47;;;;;;;31.60;17.40;;;;;;;6.51;85.91;100385.95;131166;1252;107670;-77
2023/01/11 10:16:04;;;;;;;36.20;21.20;;;;;;;6.49;86.03;100380.81;131255;1248;107281;-78
2023/01/11 10:19:15;;;;;;;28.90;17.60;;;;;;;6.53;85.94;100383.30;131333;1248;107907;-77
2023/01/11 10:22:30;;;;;;;28.40;17.50;;;;;;;6.50;85.29;100382.54;131416;1252;107536;-77
2023/01/11 10:25:46;;;;;;;30.00;17.30;;;;;;;6.40;85.55;100376.92;131360;1248;107385;-77
2023/01/11 10:29:12;;;;;;;26.70;14.50;;;;;;;6.36;85.44;100381.89;131212;1252;107412;-77
2023/01/11 10:32:33;;;;;;;27.20;15.50;;;;;;;6.33;85.43;100378.23;131321;1252;107472;-77
2023/01/11 10:39:34;;;;;;;25.40;14.40;;;;;;;6.45;85.49;100373.39;131034;1247;106730;-77
2023/01/11 10:42:47;;;;;;;23.40;15.00;;;;;;;6.48;85.28;100372.38;131147;1255;107557;-77
2023/01/11 10:45:56;;;;;;;46.50;25.80;;;;;;;6.51;85.11;100372.71;131282;1250;107445;-76
2023/01/11 10:49:15;;;;;;;27.90;15.50;;;;;;;6.54;85.70;100369.08;131119;1248;107346;-77
2023/01/11 10:52:33;;;;;;;28.50;16.10;;;;;;;6.58;85.41;100363.14;131186;1252;108581;-77
2023/01/11 10:55:48;;;;;;;27.10;15.70;;;;;;;6.60;85.33;100357.87;131167;1252;105525;-77
2023/01/11 10:59:14;;;;;;;24.80;15.20;;;;;;;6.58;85.29;100351.64;131135;1253;107458;-77
2023/01/11 11:02:32;;;;;;;22.60;13.50;;;;;;;6.60;85.31;100343.34;131291;1252;107371;-76
2023/01/11 11:05:43;;;;;;;28.80;17.10;;;;;;;6.63;85.23;100339.02;131161;1252;108635;-76
2023/01/11 11:08:56;;;;;;;37.60;21.50;;;;;;;6.67;85.05;100335.16;131297;1252;107403;-77
2023/01/11 11:12:08;;;;;;;25.60;14.70;;;;;;;6.76;85.03;100326.86;131197;1252;107450;-77
2023/01/11 11:15:20;;;;;;;22.30;13.50;;;;;;;6.82;84.67;100323.34;131301;1252;107556;-77
2023/01/11 11:18:24;;;;;;;;;;;;;;;6.86;84.82;100312.39;131261;1258;107380;-76
2023/01/11 11:21:35;;;;;;;20.90;12.70;;;;;;;6.88;84.57;100305.52;131277;1252;106137;-77
2023/01/11 11:24:45;;;;;;;22.60;13.80;;;;;;;6.93;84.73;100302.45;131150;1253;107528;-76
2023/01/11 11:27:55;;;;;;;22.20;12.40;;;;;;;6.96;84.58;100298.84;131324;1248;107267;-77
2023/01/11 11:31:04;;;;;;;19.00;12.10;;;;;;;6.99;84.45;100298.00;131443;1248;107464;-77
2023/01/11 11:34:14;;;;;;;17.80;10.50;;;;;;;7.03;84.29;100293.30;131271;1247;107532;-76
2023/01/11 11:37:27;;;;;;;15.20;9.70;;;;;;;7.05;83.90;100287.23;131259;1248;107548;-77
2023/01/11 11:40:32;;;;;;;;;;;;;;;7.11;83.62;100284.15;131350;1251;107614;-77
2023/01/11 11:43:39;;;;;;;15.10;10.30;;;;;;;7.17;83.26;100281.83;131299;1251;107529;-77
2023/01/11 11:46:57;;;;;;;17.20;10.70;;;;;;;7.25;83.82;100278.86;131376;1247;107363;-77
2023/01/11 11:50:25;;;;;;;18.40;10.40;;;;;;;7.32;83.28;100267.14;131325;1248;107361;-77
2023/01/11 11:53:42;;;;;;;16.00;10.40;;;;;;;7.32;83.12;100254.90;131495;1252;107523;-77
2023/01/11 11:56:49;;;;;;;15.40;10.80;;;;;;;7.32;82.89;100249.96;131369;1251;108634;-77
2023/01/11 12:00:04;;;;;;;16.60;10.60;;;;;;;7.30;82.48;100245.89;131395;1248;107367;-77
2023/01/11 12:03:18;;;;;;;14.80;10.10;;;;;;;7.24;82.09;100231.39;131232;1252;107624;-77
2023/01/11 12:06:26;;;;;;;15.00;9.80;;;;;;;7.19;82.07;100228.80;131109;1250;107363;-78
2023/01/11 12:09:34;;;;;;;14.60;10.40;;;;;;;7.15;82.41;100229.29;131263;1248;107328;-77
2023/01/11 12:12:52;;;;;;;15.30;10.10;;;;;;;7.14;82.01;100236.85;131360;1247;107587;-77
2023/01/11 12:16:00;;;;;;;15.50;9.70;;;;;;;7.11;81.94;100239.06;131276;1247;107382;-77
2023/01/11 12:19:29;;;;;;;15.10;9.30;;;;;;;7.06;82.03;100239.13;131262;1251;107573;-80
2023/01/11 12:22:35;;;;;;;13.50;8.10;;;;;;;7.01;81.49;100236.80;131103;1254;107379;-77
2023/01/11 12:25:53;;;;;;;14.80;9.30;;;;;;;7.00;81.55;100227.05;131088;1252;107594;-77
2023/01/11 12:29:25;;;;;;;14.60;9.30;;;;;;;7.04;81.60;100211.30;131371;1247;107511;-77
2023/01/11 12:33:07;;;;;;;18.20;10.40;;;;;;;7.08;80.93;100201.42;131453;1253;107500;-77
2023/01/11 12:36:22;;;;;;;16.30;10.20;;;;;;;7.05;80.66;100192.31;131419;1251;107352;-77
2023/01/11 12:39:38;;;;;;;20.00;11.20;;;;;;;7.03;80.83;100186.24;131522;1251;107519;-78
2023/01/11 12:42:57;;;;;;;17.60;11.20;;;;;;;6.99;80.49;100179.21;131350;1252;107505;-77
2023/01/11 12:46:14;;;;;;;17.20;11.00;;;;;;;6.92;80.46;100184.04;131334;1251;107520;-77
2023/01/11 12:49:33;;;;;;;17.90;10.60;;;;;;;6.87;80.86;100182.52;131219;1264;107533;-77
2023/01/11 12:52:52;;;;;;;17.80;12.00;;;;;;;6.84;80.99;100179.63;131143;1247;107544;-77
2023/01/11 12:56:20;;;;;;;18.90;12.00;;;;;;;6.80;81.17;100164.94;131188;1250;107474;-77
2023/01/11 12:59:47;;;;;;;31.20;13.30;;;;;;;6.75;81.34;100162.36;131117;1248;106510;-79
2023/01/11 13:03:28;;;;;;;19.10;12.10;;;;;;;6.68;81.02;100159.36;131104;1248;107403;-78
2023/01/11 13:06:40;;;;;;;22.10;11.20;;;;;;;6.60;80.87;100154.73;131331;1251;107389;-86
2023/01/11 13:09:59;;;;;;;17.40;10.70;;;;;;;6.55;81.00;100156.20;131520;1252;107518;-77
2023/01/11 13:13:12;;;;;;;18.70;11.20;;;;;;;6.55;80.89;100153.02;131310;1251;107424;-79
2023/01/11 13:16:27;;;;;;;18.70;11.60;;;;;;;6.61;81.02;100148.70;131481;1248;107443;-79
2023/01/11 13:19:40;;;;;;;19.20;11.40;;;;;;;6.64;81.00;100142.70;131437;1251;107414;-79
2023/01/11 13:22:50;;;;;;;15.70;10.80;;;;;;;6.65;80.78;100138.92;131414;1251;106501;-80
2023/01/11 13:25:58;;;;;;;17.10;11.30;;;;;;;6.62;80.56;100137.82;131444;1251;107531;-79
2023/01/11 13:29:06;;;;;;;18.60;11.30;;;;;;;6.58;80.75;100136.55;131369;1248;107521;-78
2023/01/11 13:32:16;;;;;;;20.00;12.10;;;;;;;6.55;80.81;100128.83;131292;1253;107501;-79
2023/01/11 13:35:33;;;;;;;17.10;11.10;;;;;;;6.51;80.91;100128.15;131219;1252;107385;-79
2023/01/11 13:38:45;;;;;;;22.80;14.90;;;;;;;6.45;80.74;100123.02;131356;1248;107403;-79
2023/01/11 13:41:55;;;;;;;28.30;18.60;;;;;;;6.39;80.67;100122.27;131299;1248;107207;-79
2023/01/11 13:45:06;;;;;;;18.60;11.80;;;;;;;6.33;80.59;100118.70;131246;1253;107635;-79
2023/01/11 13:48:20;;;;;;;24.00;16.10;;;;;;;6.25;80.31;100120.76;131065;1247;108671;-78
2023/01/11 13:51:31;;;;;;;16.90;10.50;;;;;;;6.18;80.37;100125.59;131304;1253;106465;-79
2023/01/11 13:54:45;;;;;;;17.90;11.10;;;;;;;6.11;80.03;100124.06;131376;1252;107392;-79
2023/01/11 13:57:56;;;;;;;26.40;18.20;;;;;;;6.06;79.74;100123.41;131190;1251;107644;-79
2023/01/11 14:01:07;;;;;;;23.00;14.80;;;;;;;6.05;79.97;100118.35;131243;1250;107898;-78
2023/01/11 14:04:21;;;;;;;18.70;11.20;;;;;;;6.06;79.83;100119.18;131215;1248;107360;-79
2023/01/11 14:07:42;;;;;;;19.20;12.30;;;;;;;6.04;79.63;100117.23;131108;1250;107445;-78
2023/01/11 14:11:01;;;;;;;20.60;12.90;;;;;;;6.00;79.49;100121.05;131360;1252;107571;-79
2023/01/11 14:14:29;;;;;;;23.80;14.10;;;;;;;5.92;79.64;100118.51;131500;1247;107345;-80
2023/01/11 14:18:04;;;;;;;21.20;12.80;;;;;;;5.82;79.68;100123.77;131241;1247;107397;-80
2023/01/11 14:21:17;;;;;;;24.70;14.60;;;;;;;5.73;79.63;100131.23;131326;1247;107443;-78
2023/01/11 14:24:25;;;;;;;24.00;14.10;;;;;;;5.61;80.00;100128.99;131113;1252;106253;-78
2023/01/11 14:28:13;;;;;;;20.10;12.70;;;;;;;5.53;79.82;100129.83;131137;1248;107063;-78
2023/01/11 14:31:35;;;;;;;23.10;13.50;;;;;;;5.37;79.80;100123.84;131117;1252;107410;-78
2023/01/11 14:35:08;;;;;;;20.40;12.60;;;;;;;5.22;79.94;100118.33;131097;1252;107544;-78
2023/01/11 14:38:23;;;;;;;;;;;;;;;5.18;79.80;100117.83;131098;1252;108721;-78
2023/01/11 14:42:02;;;;;;;20.90;12.70;;;;;;;5.16;79.98;100118.84;131314;1247;107490;-80
2023/01/11 14:45:27;;;;;;;25.40;15.50;;;;;;;5.15;79.98;100112.35;131330;1251;107502;-77
2023/01/11 14:48:42;;;;;;;30.80;17.50;;;;;;;5.12;80.14;100106.25;131183;1248;107531;-77
2023/01/11 14:51:56;;;;;;;27.20;16.50;;;;;;;5.06;80.06;100102.33;131327;1249;107502;-78